Independence, MO (64057)

10:01 AM CST on February 28, 2015 (GMT -0600)
Near the Old Airport | Change Station
CLOSE
Current Station
Personal Weather Station
Location: Independence, MO
Elevation: 820 ft
Nearby Weather Stations
Active Advisory: Winter Weather Advisory

Elev 820 ft 39.07 °N, 94.35 °W | Updated 5 seconds ago

Mostly Cloudy
Mostly Cloudy
20.6 °F
Feels Like 13 °F
N
6.0
Wind Variable Wind from NE
Gusts 10.0 mph

Today
High -- | Low -- °F
--% Chance of Precip.
Yesterday
High -- | Low -- °F
Precip. -- in
6:51 AM 6:08 PM
Waxing Gibbous, 78% visible
Pressure 30.57 in
Visibility 1.5 miles
Clouds Mostly Cloudy 2500 ft
Overcast 3400 ft
Windchill 13 °F
Dew Point 10 °F
Humidity 63%
Rainfall 0.00 in
Snow Depth Not available.
UV 1 out of 12
Pollen .50 out of 12
Air Quality Not available.
Flu Activity Not available.
METAR KLXT 281553Z AUTO 14006KT 1 1/2SM -SN BKN025 OVC034 M07/M12 A3052 RMK AO2 SNB28 SLP351 P0000 T10671117

More Conditions Fewer Conditions

Pressure 30.57 in
Visibility 1.5 miles
Clouds Mostly Cloudy 2500 ft
Overcast 3400 ft
Windchill 13 °F
Dew Point 10 °F
Humidity 63%
Rainfall 0.00 in
Snow Depth Not available.
UV 1 out of 12
Pollen .50 out of 12
Air Quality Not available.
Flu Activity Not available.
METAR KLXT 281553Z AUTO 14006KT 1 1/2SM -SN BKN025 OVC034 M07/M12 A3052 RMK AO2 SNB28 SLP351 P0000 T10671117

More Conditions Fewer Conditions

10-Day Weather Forecast

Almanac

Astronomy

Feb. 28, 2015 Rise Set
Actual Time
Civil Twilight
Nautical Twilight
Astronomical Twilight
Moon
Length of Visible Light
Length of Day
Tomorrow will be .
, % of the Moon is Illuminated

Today's Extremes

State Highs State Lows

Community

WunderPhotos

Upload Photos

1,801,068 photos uploaded!

WunderBlogs® & News

Nearby

Air Quality

  Air Quality AQ Index Pollutant
Not available.

Snow Depth

Station Depth Elevation

Earthquake Activity

City Distance Mag. Time & Date
Minimum magnitude displayed is 2.5.

Coastal Water Temperatures

Place Temperature

Nearby Weather Stations

Winter Weather Advisory
Statement as of 3:41 AM CST on February 28, 2015

... Winter Weather Advisory remains in effect from 9 am this
morning to 6 PM CST Sunday...

A Winter Weather Advisory for snow remains in effect from 9 am this
morning to 6 PM CST Sunday.

* Timing... light snow will begin late this morning and continue into
early evening. A lull is possible tonight followed by another round
of light snow on Sunday.

* Snow accumulations... 2" to 3" today and 1" to 2" on Sunday. Total
accumulations 3" to 5".

* Impacts... travel may be hazardous especially on any untreated
roadways.

Precautionary/preparedness actions...

A Winter Weather Advisory means that periods of snow... sleet... or
freezing rain will cause travel difficulties. Be prepared for
slippery roads and limited visibilities... and use caution while
driving.